Time;durP1;ratioP1;P1;durP2;ratioP2;P2;SDS_P1;SDS_P2;PMS_P1;PMS_P2;Temp;Humidity;BMP_temperature;BMP_pressure;BME280_temperature;BME280_humidity;BME280_pressure;Samples;Min_cycle;Max_cycle;Signal;HPM_P1;HPM_P2
2022/12/22 03:27:40;;;;;;;4.50;4.20;;;;;;;24.46;22.83;97862.91;4980768;28;20431;-90
2022/12/22 03:30:07;;;;;;;4.33;4.03;;;;;;;24.68;22.57;97863.94;4988833;28;20429;-90
2022/12/22 03:32:33;;;;;;;4.43;4.13;;;;;;;24.80;21.79;97854.78;4983345;28;20504;-89
2022/12/22 03:34:59;;;;;;;4.72;4.43;;;;;;;24.32;21.80;97860.50;4991261;28;20761;-89
2022/12/22 03:37:25;;;;;;;4.22;3.92;;;;;;;24.25;22.95;97852.28;4986053;28;20412;-89
2022/12/22 03:39:51;;;;;;;4.88;4.47;;;;;;;24.44;22.74;97854.94;4973313;28;20388;-90
2022/12/22 03:47:47;;;;;;;5.15;4.75;;;;;;;23.78;22.40;97852.59;4973398;28;20391;-90
2022/12/22 03:50:13;;;;;;;5.68;5.28;;;;;;;22.98;23.47;97850.44;4977149;28;20415;-90
2022/12/22 03:52:39;;;;;;;4.80;4.40;;;;;;;23.40;23.79;97862.75;4980394;28;20417;-91
2022/12/22 03:55:06;;;;;;;4.38;4.07;;;;;;;23.95;22.95;97862.59;4977156;28;20899;-91
2022/12/22 03:57:32;;;;;;;4.90;4.60;;;;;;;24.43;22.37;97864.63;4975608;28;20416;-91
2022/12/22 03:59:58;;;;;;;4.93;4.53;;;;;;;24.56;21.79;97857.03;4985297;28;20427;-90
2022/12/22 04:02:24;;;;;;;5.57;5.17;;;;;;;23.75;22.36;97850.69;4978312;28;20950;-91
2022/12/22 04:04:53;;;;;;;4.93;4.53;;;;;;;23.53;23.27;97854.41;4996119;28;20453;-91
2022/12/22 04:07:19;;;;;;;4.60;4.30;;;;;;;23.74;23.03;97849.09;4985852;28;20428;-91
2022/12/22 04:15:15;;;;;;;5.10;4.70;;;;;;;23.25;22.87;97833.41;4976179;28;20411;-91
2022/12/22 04:17:41;;;;;;;4.88;4.53;;;;;;;23.35;23.43;97838.03;4991940;28;20424;-91
2022/12/22 04:20:08;;;;;;;4.97;4.57;;;;;;;23.55;23.18;97830.34;4991889;28;20413;-91
2022/12/22 04:22:34;;;;;;;5.30;4.90;;;;;;;23.65;22.42;97834.13;5004530;28;20411;-91
2022/12/22 04:25:00;;;;;;;4.97;4.63;;;;;;;23.67;22.63;97837.28;4985591;28;20985;-92
2022/12/22 04:27:26;;;;;;;5.67;5.17;;;;;;;23.68;22.51;97828.44;4995517;28;20404;-92
2022/12/22 04:29:52;;;;;;;5.40;5.00;;;;;;;23.71;23.03;97826.78;4991559;28;20918;-91
2022/12/22 04:32:18;;;;;;;4.25;3.95;;;;;;;24.14;23.15;97820.91;4985727;28;20440;-92
2022/12/22 04:34:44;;;;;;;4.57;4.18;;;;;;;24.49;21.92;97814.31;4993559;28;20429;-91
2022/12/22 04:37:10;;;;;;;4.68;4.30;;;;;;;24.70;21.75;97806.09;4980895;28;20436;-92
2022/12/22 04:39:37;;;;;;;3.90;3.60;;;;;;;24.71;21.91;97810.47;4995191;28;20414;-92
2022/12/22 04:42:03;;;;;;;4.88;4.47;;;;;;;24.08;22.21;97801.03;4989136;28;20423;-91
2022/12/22 04:44:29;;;;;;;5.20;4.80;;;;;;;23.56;22.66;97803.91;4994903;28;20863;-91
2022/12/22 04:46:55;;;;;;;4.50;4.20;;;;;;;23.43;22.82;97807.84;4995395;28;20469;-91
2022/12/22 04:49:21;;;;;;;3.90;3.60;;;;;;;23.79;23.40;97802.94;4993076;28;20505;-91
2022/12/22 04:51:47;;;;;;;4.10;3.80;;;;;;;24.07;23.21;97796.63;4980959;28;20475;-91
2022/12/22 04:54:13;;;;;;;4.10;3.80;;;;;;;24.24;22.33;97792.56;4993112;28;20513;-91
2022/12/22 04:56:39;;;;;;;3.97;3.67;;;;;;;24.27;22.49;97788.88;4975890;28;20414;-91
2022/12/22 04:59:05;;;;;;;4.30;4.00;;;;;;;23.87;22.32;97793.94;4984037;28;20858;-91
2022/12/22 05:01:32;;;;;;;4.50;4.20;;;;;;;23.77;22.61;97785.78;4983373;28;20422;-91
2022/12/22 05:03:58;;;;;;;4.30;4.00;;;;;;;23.88;22.85;97792.69;4979479;28;20430;-91
2022/12/22 05:06:24;;;;;;;4.25;3.95;;;;;;;24.24;22.55;97772.94;4992109;28;20448;-93
2022/12/22 05:08:50;;;;;;;3.85;3.55;;;;;;;24.63;22.16;97771.81;4991384;28;20453;-93
2022/12/22 05:11:16;;;;;;;4.68;4.38;;;;;;;24.45;21.45;97775.16;4969172;28;20820;-93
2022/12/22 05:13:42;;;;;;;3.85;3.55;;;;;;;24.57;22.49;97773.59;4983729;28;20486;-93
2022/12/22 05:16:14;;;;;;;3.85;3.63;;;;;;;24.69;22.51;97775.66;4985641;28;20847;-93
2022/12/22 05:18:42;;;;;;;4.50;4.20;;;;;;;24.45;21.56;97777.16;4992024;28;20416;-93
2022/12/22 05:21:14;;;;;;;5.10;4.70;;;;;;;23.68;22.23;97789.19;4985880;28;20408;-93
2022/12/22 05:23:40;;;;;;;5.28;4.78;;;;;;;23.18;23.24;97772.75;4985676;28;20410;-93
2022/12/22 05:26:07;;;;;;;5.10;4.70;;;;;;;22.85;23.55;97771.09;4992521;28;20961;-92
2022/12/22 05:28:33;;;;;;;5.33;4.93;;;;;;;23.19;22.91;97770.75;4990058;28;20452;-92
2022/12/22 05:31:05;;;;;;;6.07;5.57;;;;;;;22.36;23.79;97761.72;5000296;28;20430;-92
2022/12/22 05:33:31;;;;;;;5.30;4.90;;;;;;;22.92;24.04;97773.75;4986907;28;20509;-93
2022/12/22 05:35:57;;;;;;;5.82;5.35;;;;;;;23.06;23.66;97769.84;4987101;28;20427;-93
2022/12/22 05:38:23;;;;;;;5.93;5.43;;;;;;;23.00;23.39;97768.78;4983276;28;20926;-92
2022/12/22 05:40:49;;;;;;;6.00;5.50;;;;;;;22.98;23.36;97768.44;4989451;28;20505;-90
2022/12/22 05:43:15;;;;;;;6.40;5.90;;;;;;;23.05;23.07;97763.47;4974891;28;20422;-92
2022/12/22 05:45:44;;;;;;;6.22;5.63;;;;;;;23.56;23.42;97756.25;4970919;28;20427;-91
2022/12/22 05:48:11;;;;;;;5.40;5.00;;;;;;;23.59;23.17;97751.81;4982173;28;20422;-91
2022/12/22 05:50:37;;;;;;;6.10;5.57;;;;;;;23.72;22.30;97755.47;4991442;28;20438;-91
2022/12/22 05:53:05;;;;;;;6.10;5.60;;;;;;;23.63;22.55;97756.09;4988903;28;20425;-92
2022/12/22 05:55:31;;;;;;;6.55;6.00;;;;;;;23.65;22.17;97748.03;4990612;28;20419;-93
2022/12/22 05:58:00;;;;;;;5.50;5.00;;;;;;;23.70;22.81;97739.09;4983181;28;20489;-92
2022/12/22 06:00:31;;;;;;;5.55;5.15;;;;;;;23.29;22.26;97739.66;4966056;28;20441;-93
2022/12/22 06:02:58;;;;;;;6.20;5.70;;;;;;;23.15;22.59;97742.81;4985761;28;20422;-90
2022/12/22 06:05:24;;;;;;;5.82;5.32;;;;;;;23.45;22.39;97743.75;4988148;28;20440;-88
2022/12/22 06:07:50;;;;;;;6.03;5.53;;;;;;;23.78;21.76;97736.91;4986702;28;20941;-93
2022/12/22 06:10:17;;;;;;;4.93;4.50;;;;;;;24.05;21.88;97740.97;4979281;28;20415;-90
2022/12/22 06:12:43;;;;;;;5.67;5.17;;;;;;;23.94;21.78;97751.66;4986158;28;20956;-94
2022/12/22 06:15:12;;;;;;;5.70;5.20;;;;;;;24.09;21.81;97748.50;4992230;28;20421;-94
2022/12/22 06:17:39;;;;;;;5.55;5.10;;;;;;;24.19;21.55;97755.84;4980451;28;20450;-94
2022/12/22 06:20:06;;;;;;;5.73;5.23;;;;;;;24.24;21.54;97755.31;4956890;28;20398;-95
2022/12/22 06:22:33;;;;;;;5.50;5.00;;;;;;;24.30;21.38;97756.31;4977598;28;20521;-95
2022/12/22 06:24:59;;;;;;;6.60;6.03;;;;;;;24.24;20.88;97760.91;4993149;28;20405;-93
2022/12/22 06:27:25;;;;;;;6.00;5.50;;;;;;;24.19;20.80;97765.06;4994007;28;20431;-94
2022/12/22 06:29:51;;;;;;;6.70;6.13;;;;;;;23.58;21.45;97776.22;4986393;28;20494;-94
2022/12/22 06:32:18;;;;;;;6.32;5.82;;;;;;;23.63;21.48;97783.31;4994844;28;20408;-95
2022/12/22 06:34:44;;;;;;;6.18;5.60;;;;;;;23.92;22.28;97773.75;4990377;28;20487;-96
2022/12/22 06:37:10;;;;;;;6.60;6.10;;;;;;;24.03;21.39;97770.66;4956793;28;20508;-95
2022/12/22 06:39:36;;;;;;;6.38;5.88;;;;;;;24.19;21.37;97767.06;4978170;28;20489;-94
2022/12/22 06:44:49;;;;;;;7.53;6.93;;;;;;;23.94;21.38;97762.88;4974336;28;20464;-95
2022/12/22 06:47:16;;;;;;;6.55;6.00;;;;;;;23.29;22.08;97773.28;4974114;28;20903;-93
2022/12/22 06:49:42;;;;;;;6.10;5.60;;;;;;;23.57;22.44;97776.69;4979325;28;20416;-94
2022/12/22 06:52:08;;;;;;;6.97;6.38;;;;;;;23.39;21.62;97777.09;4986490;28;21035;-96
2022/12/22 06:54:35;;;;;;;7.15;6.55;;;;;;;23.23;22.39;97786.25;4985056;28;20451;-95
2022/12/22 06:57:01;;;;;;;7.47;6.88;;;;;;;22.38;23.51;97781.63;4961569;28;20915;-94
2022/12/22 06:59:27;;;;;;;7.00;6.40;;;;;;;22.68;23.16;97777.88;4975623;28;20414;-95
2022/12/22 07:01:53;;;;;;;7.00;6.40;;;;;;;23.01;22.94;97773.16;4993014;28;20755;-93
2022/12/22 07:04:20;;;;;;;6.10;5.50;;;;;;;23.57;22.99;97771.84;4993206;28;20395;-94
2022/12/22 07:06:49;;;;;;;6.15;5.65;;;;;;;23.95;22.13;97772.06;4990656;28;20453;-95
2022/12/22 07:09:15;;;;;;;8.00;7.30;;;;;;;24.09;21.74;97754.09;4975304;28;20961;-95
2022/12/22 07:11:42;;;;;;;8.97;8.17;;;;;;;24.11;21.81;97771.31;4992705;28;20890;-95
2022/12/22 07:14:08;;;;;;;8.02;7.22;;;;;;;24.22;21.96;97763.38;4987371;28;20407;-93
2022/12/22 07:16:34;;;;;;;7.38;6.68;;;;;;;24.32;21.96;97762.31;4973908;28;20404;-94
2022/12/22 07:19:00;;;;;;;7.53;6.90;;;;;;;24.23;21.62;97762.94;4973176;28;20800;-95
2022/12/22 07:21:26;;;;;;;7.60;6.90;;;;;;;24.20;21.44;97763.03;4987126;28;20940;-95
2022/12/22 07:23:52;;;;;;;7.78;7.07;;;;;;;23.92;21.57;97776.53;4992724;28;20898;-95
2022/12/22 07:26:19;;;;;;;7.90;7.20;;;;;;;23.43;22.23;97766.59;4986860;28;20422;-95
2022/12/22 07:28:45;;;;;;;7.03;6.43;;;;;;;23.65;22.75;97767.66;4987445;28;20433;-95
2022/12/22 07:31:14;;;;;;;7.55;6.95;;;;;;;23.84;21.83;97758.34;4987751;28;20392;-95
2022/12/22 07:33:40;;;;;;;7.90;7.20;;;;;;;23.72;22.00;97761.84;4980297;28;20447;-95
2022/12/22 07:36:17;;;;;;;7.30;6.70;;;;;;;24.01;21.95;97753.50;4988108;28;20411;-95
2022/12/22 07:38:46;;;;;;;7.10;6.50;;;;;;;23.70;21.93;97755.13;4977258;28;20419;-95
2022/12/22 07:43:59;;;;;;;6.20;5.70;;;;;;;24.00;22.33;97755.50;4994470;28;20481;-96
2022/12/22 07:46:28;;;;;;;6.72;6.18;;;;;;;24.30;21.95;97745.91;4984933;28;20500;-95
2022/12/22 07:51:40;;;;;;;7.07;6.47;;;;;;;24.42;21.47;97725.50;4992954;28;20381;-96
2022/12/22 07:54:09;;;;;;;7.80;7.20;;;;;;;23.79;21.93;97728.03;5005202;28;20405;-95
2022/12/22 07:56:35;;;;;;;8.30;7.60;;;;;;;22.84;22.96;97726.75;4996631;28;20433;-95
2022/12/22 07:59:02;;;;;;;7.95;7.25;;;;;;;23.08;23.24;97739.41;4975993;28;20435;-94
2022/12/22 08:01:28;;;;;;;7.30;6.70;;;;;;;23.26;23.06;97731.38;4977288;28;20406;-95
2022/12/22 08:03:54;;;;;;;7.63;7.00;;;;;;;23.75;22.51;97727.34;4979553;28;20451;-95
2022/12/22 08:06:20;;;;;;;6.90;6.30;;;;;;;23.64;23.00;97728.84;4976835;28;20419;-95
2022/12/22 08:08:46;;;;;;;7.53;6.93;;;;;;;23.25;23.00;97727.78;4995384;28;20496;-95
2022/12/22 08:11:13;;;;;;;7.18;6.57;;;;;;;23.20;23.29;97721.88;4996260;28;20386;-96
2022/12/22 08:13:39;;;;;;;8.00;7.30;;;;;;;22.97;22.95;97716.44;4993355;28;20425;-95
2022/12/22 08:16:07;;;;;;;8.23;7.53;;;;;;;22.71;23.82;97715.44;4995536;28;20418;-95
2022/12/22 08:18:34;;;;;;;7.70;7.00;;;;;;;22.62;24.19;97718.03;4994543;28;20425;-95
2022/12/22 08:21:01;;;;;;;7.35;6.75;;;;;;;22.85;24.12;97709.50;4995410;28;20398;-95
2022/12/22 08:23:28;;;;;;;7.28;6.68;;;;;;;22.92;24.29;97714.19;4983730;28;20406;-96
2022/12/22 08:26:13;;;;;;;7.07;6.47;;;;;;;23.00;24.19;97707.19;4978387;28;20944;-95
2022/12/22 08:29:02;;;;;;;6.65;6.15;;;;;;;22.42;24.92;97704.06;4982238;28;20414;-96
2022/12/22 08:31:29;;;;;;;6.47;5.90;;;;;;;23.10;24.29;97698.53;4959194;28;20515;-96
2022/12/22 08:33:58;;;;;;;6.45;5.95;;;;;;;23.35;23.91;97704.34;4975963;28;20404;-96
2022/12/22 08:36:25;;;;;;;5.10;4.70;;;;;;;24.01;23.70;97694.59;4976247;28;21031;-96
2022/12/22 08:38:52;;;;;;;5.15;4.75;;;;;;;24.26;23.40;97699.53;4964072;28;20770;-96
2022/12/22 08:41:48;;;;;;;5.10;4.70;;;;;;;24.55;23.51;97700.28;4977302;28;20820;-96
2022/12/22 08:44:04;;;;;;;5.40;5.00;;;;;;;24.04;24.83;97694.50;4976326;28;20408;-96
2022/12/22 08:46:30;;;;;;;5.13;4.72;;;;;;;23.80;25.29;97689.56;4976187;28;20765;-96
2022/12/22 08:48:56;;;;;;;5.88;5.47;;;;;;;23.63;26.01;97688.03;4958949;28;20923;-95
2022/12/22 08:51:22;;;;;;;5.30;4.90;;;;;;;23.92;25.42;97686.06;4986160;28;20419;-95
2022/12/22 08:53:49;;;;;;;4.30;4.00;;;;;;;24.89;24.86;97683.63;4977682;28;20445;-95
2022/12/22 08:56:15;;;;;;;4.38;4.07;;;;;;;24.94;24.79;97680.25;4985461;28;20416;-95
2022/12/22 08:58:41;;;;;;;4.00;3.70;;;;;;;25.84;24.13;97682.47;4992659;28;20414;-95
2022/12/22 09:01:13;;;;;;;3.67;3.47;;;;;;;26.15;23.23;97674.94;4989814;28;20425;-95
2022/12/22 09:03:39;;;;;;;3.55;3.35;;;;;;;26.30;23.66;97669.56;4976339;28;20730;-94
2022/12/22 09:06:06;;;;;;;3.55;3.35;;;;;;;26.08;22.91;97659.06;4977548;28;20441;-95
2022/12/22 09:08:32;;;;;;;4.10;3.80;;;;;;;25.39;24.27;97652.66;4988027;28;20418;-92
2022/12/22 09:11:03;;;;;;;4.22;3.92;;;;;;;25.13;24.65;97658.78;4993699;28;20771;-96
2022/12/22 09:13:29;;;;;;;4.07;3.78;;;;;;;25.04;24.85;97653.81;4979638;28;20501;-96
2022/12/22 09:15:55;;;;;;;3.40;3.20;;;;;;;24.94;25.00;97648.56;4964821;28;20507;-96
2022/12/22 09:18:21;;;;;;;3.97;3.67;;;;;;;24.20;26.61;97643.19;4986969;28;20491;-95
2022/12/22 09:20:53;;;;;;;3.87;3.57;;;;;;;24.26;25.70;97644.22;4990568;28;20421;-95
2022/12/22 09:23:19;;;;;;;3.42;3.22;;;;;;;24.31;26.17;97645.69;4967970;28;20422;-93
2022/12/22 09:25:45;;;;;;;3.50;3.30;;;;;;;24.37;25.96;97643.88;4973090;28;20426;-92
2022/12/22 09:28:11;;;;;;;4.10;3.80;;;;;;;23.09;27.39;97642.94;4989040;28;20958;-91
2022/12/22 09:30:37;;;;;;;3.58;3.38;;;;;;;23.01;27.74;97647.16;4986152;28;20425;-92
2022/12/22 09:33:03;;;;;;;3.30;3.10;;;;;;;23.51;27.00;97624.28;4988577;28;20411;-91
2022/12/22 09:35:29;;;;;;;3.65;3.35;;;;;;;23.29;27.39;97621.25;4994712;28;20485;-90
2022/12/22 09:37:55;;;;;;;3.53;3.23;;;;;;;;;;4987071;28;20902;-90
2022/12/22 09:40:23;;;;;;;3.45;3.25;;;;;;;24.54;26.71;97614.50;4988770;28;20422;-91
2022/12/22 09:42:49;;;;;;;3.13;2.93;;;;;;;25.02;26.08;97616.97;4987257;28;20774;-93
2022/12/22 09:45:20;;;;;;;3.22;3.03;;;;;;;25.57;25.31;97600.69;4990438;28;20430;-91
2022/12/22 09:47:52;;;;;;;2.90;2.70;;;;;;;25.73;24.52;97601.28;4983271;28;20772;-92
2022/12/22 09:50:24;;;;;;;2.70;2.50;;;;;;;26.04;25.13;97596.50;4979483;28;20427;-92
2022/12/22 09:52:57;;;;;;;2.33;2.20;;;;;;;26.46;24.62;97590.53;4987810;28;20436;-92
2022/12/22 09:55:23;;;;;;;2.17;2.07;;;;;;;26.62;24.33;97584.66;4989429;28;20882;-92
2022/12/22 09:57:51;;;;;;;2.05;1.95;;;;;;;26.56;23.53;97586.50;4983268;28;20446;-93
2022/12/22 10:00:20;;;;;;;2.20;2.10;;;;;;;26.37;25.01;97579.22;4989908;28;20398;-96
2022/12/22 10:02:54;;;;;;;2.30;2.20;;;;;;;26.41;24.79;97569.41;4985196;28;20476;-96
2022/12/22 10:05:37;;;;;;;2.00;1.90;;;;;;;27.00;23.56;97575.91;4988178;28;20512;-96
2022/12/22 10:08:12;;;;;;;1.83;1.73;;;;;;;27.47;23.46;97576.28;4989497;28;21066;-95
2022/12/22 10:10:39;;;;;;;1.90;1.80;;;;;;;27.49;22.71;97578.66;4987570;28;20476;-95
2022/12/22 10:13:06;;;;;;;1.50;1.40;;;;;;;27.80;23.30;97565.94;4984049;28;20492;-95
2022/12/22 10:15:40;;;;;;;1.50;1.40;;;;;;;28.27;22.81;97570.28;4988673;28;20427;-94
2022/12/22 10:18:34;;;;;;;1.50;1.40;;;;;;;28.64;22.31;97560.44;4984072;28;20438;-94
2022/12/22 10:21:12;;;;;;;1.42;1.33;;;;;;;28.94;22.28;97559.34;4979356;28;20427;-94
2022/12/22 10:23:43;;;;;;;1.55;1.45;;;;;;;28.92;21.54;97561.88;4989001;28;20412;-95
2022/12/22 10:26:24;;;;;;;1.93;1.83;;;;;;;28.06;22.53;97543.81;4986873;28;20457;-95
2022/12/22 10:29:14;;;;;;;2.70;2.50;;;;;;;27.29;22.94;97548.06;4982488;28;20487;-94
2022/12/22 10:31:57;;;;;;;2.20;2.10;;;;;;;27.58;22.75;97545.59;4973308;28;20464;-95
2022/12/22 10:34:23;;;;;;;2.10;2.00;;;;;;;27.09;23.07;97545.69;4982161;28;20454;-94
2022/12/22 10:36:54;;;;;;;2.00;1.90;;;;;;;26.95;23.76;97537.84;4968760;28;20442;-95
2022/12/22 10:39:32;;;;;;;2.60;2.40;;;;;;;26.96;23.47;97524.53;4973541;28;20769;-94
2022/12/22 10:42:16;;;;;;;2.60;2.40;;;;;;;27.48;23.06;97523.50;4989559;28;20480;-95
2022/12/22 10:44:48;;;;;;;2.93;2.73;;;;;;;27.39;23.26;97530.72;4987606;28;20413;-95
2022/12/22 10:47:22;;;;;;;2.60;2.40;;;;;;;27.32;23.42;97521.75;4984254;28;20429;-94
2022/12/22 10:49:56;;;;;;;2.70;2.50;;;;;;;27.43;23.21;97524.91;4963206;28;20435;-94
2022/12/22 10:52:26;;;;;;;2.70;2.50;;;;;;;27.69;23.10;97523.34;4985286;28;20456;-94
2022/12/22 10:55:12;;;;;;;2.70;2.50;;;;;;;26.99;22.58;97524.38;4986278;28;20529;-94
2022/12/22 10:57:38;;;;;;;2.60;2.40;;;;;;;27.13;23.76;97518.16;4986063;28;20934;-95
2022/12/22 11:00:29;;;;;;;2.25;2.15;;;;;;;27.59;23.21;97518.94;4987999;28;20462;-94
2022/12/22 11:02:57;;;;;;;2.10;2.00;;;;;;;28.02;22.70;97504.50;4984989;28;20418;-95
2022/12/22 11:05:24;;;;;;;2.10;2.00;;;;;;;27.92;22.03;97500.09;4981888;28;20420;-95
2022/12/22 11:07:51;;;;;;;2.00;1.90;;;;;;;28.15;22.13;97492.19;4963749;28;20508;-95
2022/12/22 11:10:19;;;;;;;2.63;2.42;;;;;;;28.38;21.55;97494.31;4966771;28;20433;-95
2022/12/22 11:13:10;;;;;;;2.40;2.20;;;;;;;28.55;21.88;97493.44;4967132;28;20430;-95
2022/12/22 11:15:53;;;;;;;2.67;2.47;;;;;;;28.71;21.65;97490.25;4966249;28;20790;-96
2022/12/22 11:18:46;;;;;;;2.80;2.60;;;;;;;28.94;21.41;97485.84;4969165;28;20527;-96
2022/12/22 11:21:20;;;;;;;2.70;2.50;;;;;;;29.16;21.59;97485.53;4991748;28;20436;-95
2022/12/22 11:24:05;;;;;;;2.90;2.70;;;;;;;29.42;21.59;97489.44;4971821;28;20466;-95
2022/12/22 11:27:13;;;;;;;2.90;2.70;;;;;;;29.59;21.44;97492.59;4963977;28;20433;-96
2022/12/22 11:30:08;;;;;;;3.10;2.90;;;;;;;29.54;21.47;97490.44;4961832;28;20419;-96
2022/12/22 11:32:52;;;;;;;2.70;2.50;;;;;;;29.49;21.54;97486.25;4965551;28;20503;-96
2022/12/22 11:35:29;;;;;;;3.10;2.90;;;;;;;29.53;21.45;97486.03;4967393;28;20450;-96
2022/12/22 11:38:04;;;;;;;3.42;3.22;;;;;;;29.52;21.51;97484.50;4971063;28;20434;-96
2022/12/22 11:40:45;;;;;;;5.05;4.65;;;;;;;28.79;21.76;97487.84;4971931;28;20424;-96
2022/12/22 11:43:36;;;;;;;6.50;5.90;;;;;;;28.96;21.64;97491.03;4965922;28;20433;-96
2022/12/22 11:46:19;;;;;;;7.00;6.38;;;;;;;29.12;21.80;97484.94;4965657;28;20428;-91
2022/12/22 11:49:04;;;;;;;7.85;7.10;;;;;;;29.29;21.55;97475.56;4964387;28;20490;-90
2022/12/22 11:51:48;;;;;;;8.98;8.07;;;;;;;29.43;21.16;97469.16;4968934;28;20415;-90
2022/12/22 11:54:39;;;;;;;9.10;8.20;;;;;;;28.58;21.35;97477.59;4965467;28;20453;-91
2022/12/22 11:57:36;;;;;;;8.95;8.05;;;;;;;28.49;22.00;97477.63;4970556;28;20426;-90
2022/12/22 12:00:12;;;;;;;8.77;7.82;;;;;;;28.83;21.89;97474.31;4961265;28;20419;-88
2022/12/22 12:03:00;;;;;;;8.93;7.35;;;;;;;29.10;21.83;97462.03;4965484;28;20482;-91
2022/12/22 12:05:29;;;;;;;10.02;8.90;;;;;;;28.21;22.16;97470.56;4967491;28;20440;-93
2022/12/22 12:08:28;;;;;;;10.73;9.15;;;;;;;28.25;23.02;97460.66;4979235;28;20438;-91
2022/12/22 12:11:17;;;;;;;11.73;9.77;;;;;;;28.36;23.14;97460.13;4983864;28;20460;-93
2022/12/22 12:14:26;;;;;;;14.55;11.18;;;;;;;28.67;23.19;97466.25;4980434;28;20476;-90
2022/12/22 12:17:01;;;;;;;13.33;10.57;;;;;;;28.74;22.66;97460.25;4975671;28;20435;-96
2022/12/22 12:19:49;;;;;;;14.90;10.80;;;;;;;28.92;23.21;97457.28;4974324;28;20848;-91
2022/12/22 12:22:51;;;;;;;14.68;10.88;;;;;;;29.25;22.52;97457.22;4981292;28;21164;-90
2022/12/22 12:25:46;;;;;;;14.40;10.67;;;;;;;29.13;22.12;97452.56;4987133;28;20498;-95
2022/12/22 12:28:19;;;;;;;15.50;11.20;;;;;;;28.57;23.42;97442.91;4985637;28;20446;-90
2022/12/22 12:30:58;;;;;;;15.67;11.30;;;;;;;28.91;23.56;97441.63;4991268;28;21072;-89
2022/12/22 12:33:59;;;;;;;17.15;12.10;;;;;;;28.93;23.04;97438.28;4985874;28;20414;-91
2022/12/22 12:37:03;;;;;;;15.27;10.88;;;;;;;28.91;23.52;97432.34;4960608;28;20496;-91
2022/12/22 12:40:00;;;;;;;13.70;10.20;;;;;;;28.96;22.99;97417.56;4981609;28;20780;-92
2022/12/22 12:42:35;;;;;;;13.77;10.00;;;;;;;28.81;23.22;97419.53;4987710;28;20831;-88
2022/12/22 12:45:01;;;;;;;12.23;9.03;;;;;;;28.68;23.31;97412.09;4983424;28;20418;-87
2022/12/22 12:47:30;;;;;;;10.32;7.93;;;;;;;28.47;23.87;97415.19;4990487;28;20805;-85
2022/12/22 12:49:56;;;;;;;11.15;7.80;;;;;;;28.52;23.52;97411.72;4985628;28;20471;-87
2022/12/22 12:52:42;;;;;;;10.00;7.30;;;;;;;28.53;23.57;97407.63;4992704;28;20440;-87
2022/12/22 12:55:32;;;;;;;8.68;6.88;;;;;;;28.59;24.43;97409.31;4986244;28;20821;-87
2022/12/22 12:58:01;;;;;;;8.17;6.20;;;;;;;28.39;23.58;97406.28;4984328;28;20488;-90
2022/12/22 13:00:33;;;;;;;9.35;6.75;;;;;;;28.10;23.95;97408.94;4987743;28;20585;-91
2022/12/22 13:03:09;;;;;;;8.43;6.13;;;;;;;28.36;23.87;97412.91;4988653;28;20411;-91
2022/12/22 13:05:55;;;;;;;8.57;5.93;;;;;;;28.88;22.77;97411.47;4989406;28;20430;-90
2022/12/22 13:08:23;;;;;;;8.87;6.50;;;;;;;29.19;22.61;97400.59;4967607;28;20408;-91
2022/12/22 13:10:51;;;;;;;10.60;7.80;;;;;;;29.22;21.96;97396.00;4986712;28;20476;-91
2022/12/22 13:13:23;;;;;;;12.07;8.70;;;;;;;28.76;21.74;97392.72;4987977;28;20406;-91
2022/12/22 13:16:02;;;;;;;11.45;8.32;;;;;;;27.60;23.32;97382.31;4975737;28;20922;-91
2022/12/22 13:18:34;;;;;;;11.05;7.88;;;;;;;27.81;22.39;97398.25;4987887;28;20435;-91
2022/12/22 13:21:13;;;;;;;11.38;7.65;;;;;;;27.08;24.30;97402.44;4977539;28;20454;-91
2022/12/22 13:23:54;;;;;;;9.40;6.70;;;;;;;27.15;23.99;97407.75;4977524;28;20435;-91
2022/12/22 13:26:24;;;;;;;8.20;5.97;;;;;;;27.67;24.14;97398.91;4994497;28;20929;-91
2022/12/22 13:29:10;;;;;;;7.00;5.43;;;;;;;28.00;23.64;97399.78;4974275;28;20432;-91
2022/12/22 13:31:43;;;;;;;8.70;6.45;;;;;;;27.43;23.09;97398.03;4957160;28;20447;-91
2022/12/22 13:34:37;;;;;;;9.75;6.45;;;;;;;27.21;23.24;97394.59;4992743;28;20493;-91
2022/12/22 13:37:23;;;;;;;8.77;5.73;;;;;;;27.07;23.48;97386.78;4984017;28;20419;-91
2022/12/22 13:40:11;;;;;;;8.45;6.03;;;;;;;27.10;23.20;97386.63;4990445;28;20406;-90
2022/12/22 13:43:02;;;;;;;8.23;6.07;;;;;;;27.23;23.66;97392.09;4990012;28;20476;-91
2022/12/22 13:45:33;;;;;;;8.23;5.82;;;;;;;26.33;24.86;97402.03;4963755;28;20429;-91
2022/12/22 13:48:03;;;;;;;7.82;5.72;;;;;;;26.76;24.43;97394.63;4982329;28;20962;-91
2022/12/22 13:50:36;;;;;;;8.90;6.40;;;;;;;26.19;25.54;97385.72;4989562;28;20425;-93
2022/12/22 13:53:05;;;;;;;8.85;6.15;;;;;;;26.87;24.40;97380.84;4986505;28;20429;-92
2022/12/22 13:55:32;;;;;;;9.70;6.10;;;;;;;26.76;24.76;97381.31;4983464;28;20444;-92
2022/12/22 13:58:19;;;;;;;8.15;5.90;;;;;;;26.74;24.37;97380.97;4991774;28;20421;-92
2022/12/22 14:00:45;;;;;;;7.50;5.57;;;;;;;26.63;24.62;97389.09;4989222;28;20462;-92
2022/12/22 14:03:18;;;;;;;6.78;4.55;;;;;;;26.84;24.28;97390.25;4985471;28;20437;-93
2022/12/22 14:05:44;;;;;;;5.33;4.07;;;;;;;27.21;24.29;97381.28;4991703;28;20456;-93
2022/12/22 14:08:12;;;;;;;5.20;3.90;;;;;;;27.24;23.62;97388.00;4986826;28;20981;-93
2022/12/22 14:10:44;;;;;;;5.18;4.15;;;;;;;26.63;24.27;97375.78;4992073;28;20417;-92
2022/12/22 14:13:15;;;;;;;5.60;4.17;;;;;;;26.77;24.03;97384.94;4985544;28;20412;-94
2022/12/22 14:15:43;;;;;;;3.75;3.20;;;;;;;26.98;23.72;97378.34;4991121;28;20430;-95
2022/12/22 14:18:25;;;;;;;4.95;4.07;;;;;;;26.72;23.66;97389.88;4983376;28;20416;-93
2022/12/22 14:20:52;;;;;;;4.70;3.55;;;;;;;26.60;24.44;97390.03;4980538;28;20422;-93
2022/12/22 14:23:37;;;;;;;4.10;3.30;;;;;;;26.57;23.45;97396.59;4991069;28;20463;-93
2022/12/22 14:26:07;;;;;;;5.28;3.97;;;;;;;26.64;23.58;97383.00;4992293;28;20465;-93
2022/12/22 14:28:49;;;;;;;5.10;3.77;;;;;;;26.47;23.11;97392.19;4979955;28;20896;-93
2022/12/22 14:31:17;;;;;;;4.43;3.35;;;;;;;26.28;23.54;97396.25;4978127;28;20421;-92
2022/12/22 14:34:04;;;;;;;4.97;3.47;;;;;;;25.22;25.15;97394.75;4986989;28;20429;-92
2022/12/22 14:36:40;;;;;;;4.57;3.35;;;;;;;25.97;24.08;97393.47;4981559;28;20982;-92
2022/12/22 14:39:09;;;;;;;4.37;3.17;;;;;;;25.74;23.38;97388.38;4987376;28;20786;-95
2022/12/22 14:41:50;;;;;;;4.18;3.45;;;;;;;25.55;23.55;97389.53;4985601;28;20410;-95
2022/12/22 14:44:24;;;;;;;6.05;4.25;;;;;;;25.45;24.39;97391.50;4988849;28;20437;-91
2022/12/22 14:47:16;;;;;;;8.23;5.27;;;;;;;25.23;24.50;97393.50;4978572;28;20554;-86
2022/12/22 14:49:49;;;;;;;6.75;4.50;;;;;;;25.58;24.05;97394.22;4987122;28;20423;-88
2022/12/22 14:52:21;;;;;;;7.03;4.80;;;;;;;25.27;24.09;97386.53;4992281;28;20410;-87
2022/12/22 14:54:50;;;;;;;5.75;3.88;;;;;;;25.68;23.80;97388.19;4976754;28;20426;-87
2022/12/22 14:57:28;;;;;;;5.18;3.58;;;;;;;25.90;23.42;97393.75;4982236;28;20435;-87
2022/12/22 14:59:59;;;;;;;4.85;3.20;;;;;;;25.99;23.11;97390.97;4972411;28;20430;-87
2022/12/22 15:02:33;;;;;;;6.25;4.20;;;;;;;25.75;23.46;97381.47;4980273;28;20442;-88
2022/12/22 15:05:11;;;;;;;7.65;4.55;;;;;;;25.97;23.22;97397.06;4959420;28;20510;-88
2022/12/22 15:07:49;;;;;;;7.17;4.57;;;;;;;25.83;23.87;97389.19;4974612;28;20430;-88
2022/12/22 15:10:17;;;;;;;5.80;4.30;;;;;;;25.91;23.06;97381.22;4974954;28;20747;-89
2022/12/22 15:12:43;;;;;;;8.93;5.82;;;;;;;25.93;23.19;97389.97;4974633;28;20420;-89
2022/12/22 15:15:18;;;;;;;7.23;4.57;;;;;;;25.93;23.78;97385.16;4976390;28;20541;-90
2022/12/22 15:17:47;;;;;;;6.87;4.97;;;;;;;26.11;23.70;97378.84;4981330;28;20442;-90
2022/12/22 15:20:20;;;;;;;7.35;4.78;;;;;;;26.07;23.18;97375.34;4973579;28;20583;-88
2022/12/22 15:22:47;;;;;;;6.35;4.75;;;;;;;25.47;24.33;97380.56;4984721;28;20938;-91
2022/12/22 15:25:20;;;;;;;5.57;4.43;;;;;;;25.60;24.22;97383.31;4986374;28;20428;-88
2022/12/22 15:27:49;;;;;;;6.40;4.40;;;;;;;25.76;24.09;97381.03;4967454;28;20468;-91
2022/12/22 15:30:21;;;;;;;6.85;4.50;;;;;;;26.02;23.76;97378.78;4970161;28;20474;-90
2022/12/22 15:32:48;;;;;;;8.18;5.82;;;;;;;26.16;23.54;97375.44;4985376;28;20449;-91
2022/12/22 15:35:33;;;;;;;10.75;7.15;;;;;;;26.34;23.67;97371.84;4982935;28;20410;-90
2022/12/22 15:38:00;;;;;;;10.85;6.60;;;;;;;26.39;23.43;97363.59;4972736;28;20425;-88
2022/12/22 15:40:27;;;;;;;11.25;7.45;;;;;;;26.38;23.42;97364.03;4981072;28;20457;-90